Startpagina
METAR-TAF:

METAR-TAF

Vliegvelden :

Mendoza, Argentinië

breedte: 32-50S, lengte: 068-47W, hoogte: 705 m

Actueel weer

Dit bericht is 56 minuten geleden gemaakt, om 13:00 UTC
Weinig wind
Temperatuur 10°C
Vochtigheid 46%
Druk 1029 hPa
Zicht 10 km of meer
geen wolken onder 1500 m en geen cumulonimbus

METAR: SAME 141300Z 00000KT CAVOK 10/M01 Q1029

Tijdstip: 10:56 (13:56 UTC)

Verwachting

Dit bericht is 2 uur en het 56 minuten geleden gemaakt, om 11:00 UTC
Verwachting geldig van 14 om 12 UTC tot 15 om 12 UTC
Wind 10 kt uit het zuiden
Zicht 10 km of meer
Weinig wolken op 4000 ft

TAF: SAME 141100Z 1412/1512 18010KT 9999 FEW040 TX17/1420Z TN04/1510Z

Waarnemingen en weersverwachtingen van meer dan 4000 vliegvelden (METAR en TAF).

De beschikbare stations zijn de gele en rode punten op de kaart.

Ga met uw muis naar het station om de naam te zien.

Klik dan om waarnemingen en weersverwachtingen te zien.

kaart wijzigen: klik op de groene knoppen met een zwart kruis om in te zoomen, op de groene knop met een streepje om uit te zoomen of op de groene pijlen voor aangrenzende kaarten.


METAR-TAF: